Time;durP1;ratioP1;P1;durP2;ratioP2;P2;SDS_P1;SDS_P2;PMS_P1;PMS_P2;Temp;Humidity;BMP_temperature;BMP_pressure;BME280_temperature;BME280_humidity;BME280_pressure;Samples;Min_cycle;Max_cycle;Signal;HPM_P1;HPM_P2
2021/05/03 00:00:18;;;;;;;1.65;0.50;;;3.30;99.90;;;;;;5024028;28;20034;-77
2021/05/03 00:02:44;;;;;;;1.98;0.50;;;3.40;99.90;;;;;;5007241;28;20077;-77
2021/05/03 00:05:22;;;;;;;1.45;0.50;;;3.40;99.90;;;;;;5024545;28;20026;-77
2021/05/03 00:07:48;;;;;;;1.63;0.52;;;3.40;99.90;;;;;;5024272;28;20046;-77
2021/05/03 00:10:14;;;;;;;3.60;0.60;;;3.50;99.90;;;;;;5023295;28;20061;-77
2021/05/03 00:12:41;;;;;;;3.13;0.60;;;3.40;99.90;;;;;;5023049;28;20034;-77
2021/05/03 00:15:08;;;;;;;2.47;0.60;;;3.50;99.90;;;;;;5006744;28;20026;-77
2021/05/03 00:17:34;;;;;;;2.25;0.40;;;3.50;99.90;;;;;;5024830;28;20033;-77
2021/05/03 00:19:59;;;;;;;2.78;0.63;;;3.50;99.90;;;;;;4993908;28;20034;-77
2021/05/03 00:22:25;;;;;;;1.67;0.40;;;3.50;99.90;;;;;;5026621;28;20030;-77
2021/05/03 00:24:50;;;;;;;1.90;0.50;;;3.50;99.90;;;;;;5026608;28;20171;-77
2021/05/03 00:27:16;;;;;;;1.40;0.50;;;3.50;99.90;;;;;;5027854;28;20036;-77
2021/05/03 00:29:42;;;;;;;1.70;0.57;;;3.40;99.90;;;;;;5026417;28;20068;-77
2021/05/03 00:32:07;;;;;;;2.35;0.70;;;3.40;99.90;;;;;;5026541;28;20021;-77
2021/05/03 00:34:33;;;;;;;1.63;0.55;;;3.40;99.90;;;;;;5027530;28;20045;-77
2021/05/03 00:36:58;;;;;;;1.65;0.50;;;3.40;99.90;;;;;;5030012;28;20030;-77
2021/05/03 00:39:24;;;;;;;1.67;0.68;;;3.40;99.90;;;;;;5010129;28;20254;-77
2021/05/03 00:41:50;;;;;;;1.40;0.52;;;3.40;99.90;;;;;;5027440;28;20057;-77
2021/05/03 00:44:15;;;;;;;2.47;0.60;;;3.40;99.90;;;;;;5009936;28;20052;-77
2021/05/03 00:46:41;;;;;;;2.08;0.57;;;3.30;99.90;;;;;;5026083;28;20109;-77
2021/05/03 00:49:07;;;;;;;1.75;0.50;;;3.30;99.90;;;;;;5009797;28;20049;-77
2021/05/03 00:51:33;;;;;;;2.47;0.60;;;3.30;99.90;;;;;;5009538;28;20189;-77
2021/05/03 00:53:59;;;;;;;2.53;0.60;;;3.20;99.90;;;;;;5026189;28;20042;-77
2021/05/03 00:56:24;;;;;;;1.70;0.55;;;3.10;99.90;;;;;;5027099;28;20028;-77
2021/05/03 00:58:50;;;;;;;1.58;0.55;;;3.10;99.90;;;;;;5027325;28;20034;-77
2021/05/03 01:01:16;;;;;;;2.65;0.50;;;3.10;99.90;;;;;;5009470;28;20081;-77
2021/05/03 01:03:42;;;;;;;1.63;0.60;;;3.10;99.90;;;;;;5027118;28;20038;-77
2021/05/03 01:06:08;;;;;;;1.85;0.50;;;3.10;99.90;;;;;;5026807;28;20057;-77
2021/05/03 01:08:33;;;;;;;1.70;0.70;;;3.10;99.90;;;;;;5026914;28;20057;-77
2021/05/03 01:11:00;;;;;;;3.67;0.60;;;3.00;99.90;;;;;;5027080;28;20029;-77
2021/05/03 01:13:26;;;;;;;1.38;0.55;;;3.00;99.90;;;;;;5009635;28;20033;-77
2021/05/03 01:15:51;;;;;;;1.77;0.63;;;3.00;99.90;;;;;;5025641;28;20029;-77
2021/05/03 01:18:23;;;;;;;3.50;0.55;;;2.90;99.90;;;;;;5025834;28;20097;-77
2021/05/03 01:20:49;;;;;;;1.52;0.60;;;2.90;99.90;;;;;;5026931;28;20041;-76
2021/05/03 01:23:14;;;;;;;3.53;0.70;;;2.80;99.90;;;;;;5026703;28;20026;-77
2021/05/03 01:25:42;;;;;;;3.20;0.70;;;2.70;99.90;;;;;;5009145;28;20029;-77
2021/05/03 01:28:07;;;;;;;2.17;0.60;;;2.70;99.90;;;;;;5009025;28;20038;-77
2021/05/03 01:30:34;;;;;;;2.00;0.60;;;2.80;99.90;;;;;;5008733;28;20033;-77
2021/05/03 01:33:01;;;;;;;2.17;0.50;;;2.80;99.90;;;;;;5026660;28;20033;-77
2021/05/03 01:35:27;;;;;;;1.60;0.60;;;2.80;99.90;;;;;;5026225;28;20022;-76
2021/05/03 01:37:55;;;;;;;2.10;0.60;;;2.90;99.90;;;;;;5025421;28;20065;-77
2021/05/03 01:40:22;;;;;;;2.20;0.60;;;2.90;99.90;;;;;;4992818;28;20028;-77
2021/05/03 01:42:48;;;;;;;2.22;0.60;;;2.90;99.90;;;;;;5008875;28;20071;-77
2021/05/03 01:45:15;;;;;;;1.40;0.50;;;2.90;99.90;;;;;;5008951;28;20063;-77
2021/05/03 01:47:41;;;;;;;1.60;0.60;;;2.80;99.90;;;;;;5008847;28;20042;-77
2021/05/03 01:50:08;;;;;;;3.05;0.55;;;2.80;99.90;;;;;;5008898;28;20083;-76
2021/05/03 01:52:35;;;;;;;1.88;0.60;;;2.90;99.90;;;;;;5025995;28;20018;-76
2021/05/03 01:55:03;;;;;;;3.60;0.60;;;2.80;99.90;;;;;;5008797;28;20148;-77
2021/05/03 01:57:29;;;;;;;1.75;0.90;;;2.90;99.90;;;;;;5026224;28;20026;-77
2021/05/03 01:59:54;;;;;;;2.10;0.63;;;2.90;99.90;;;;;;5025045;28;20045;-77
2021/05/03 02:02:20;;;;;;;1.58;0.70;;;2.90;99.90;;;;;;5024825;28;20030;-77
2021/05/03 02:04:46;;;;;;;1.50;0.50;;;2.90;99.90;;;;;;5026221;28;20090;-76
2021/05/03 02:07:15;;;;;;;3.60;0.60;;;2.80;99.90;;;;;;5025486;28;20489;-77
2021/05/03 02:09:42;;;;;;;1.90;0.60;;;2.70;99.90;;;;;;5008249;28;20046;-76
2021/05/03 02:12:08;;;;;;;2.75;0.65;;;2.70;99.90;;;;;;5008135;28;20029;-77
2021/05/03 02:14:36;;;;;;;2.42;0.80;;;2.60;99.90;;;;;;5025792;28;20028;-76
2021/05/03 02:17:02;;;;;;;1.98;0.57;;;2.60;99.90;;;;;;5024422;28;20054;-77
2021/05/03 02:19:28;;;;;;;2.35;0.60;;;2.50;99.90;;;;;;5026051;28;20025;-77
2021/05/03 02:21:53;;;;;;;2.28;0.70;;;2.60;99.90;;;;;;5007833;28;20068;-77
2021/05/03 02:24:19;;;;;;;3.35;0.75;;;2.50;99.90;;;;;;5024327;28;20036;-77
2021/05/03 02:26:44;;;;;;;3.00;0.70;;;2.50;99.90;;;;;;5025534;28;20048;-77
2021/05/03 02:29:10;;;;;;;2.45;0.70;;;2.40;99.90;;;;;;5008014;28;20482;-76
2021/05/03 02:31:35;;;;;;;1.73;0.70;;;2.40;99.90;;;;;;5007887;28;20041;-77
2021/05/03 02:34:01;;;;;;;2.10;0.70;;;2.40;99.90;;;;;;5007112;28;20099;-76
2021/05/03 02:36:27;;;;;;;2.47;1.17;;;2.40;99.90;;;;;;5026533;28;20022;-77
2021/05/03 02:38:53;;;;;;;2.25;0.95;;;2.40;99.90;;;;;;5024118;28;20018;-77
2021/05/03 02:41:18;;;;;;;2.92;0.90;;;2.40;99.90;;;;;;5024565;28;20049;-76
2021/05/03 02:43:44;;;;;;;2.97;1.25;;;2.50;99.90;;;;;;5007714;28;20029;-77
2021/05/03 02:46:10;;;;;;;2.22;0.80;;;2.50;99.90;;;;;;5025271;28;20029;-77
2021/05/03 02:48:36;;;;;;;2.60;1.17;;;2.50;99.90;;;;;;5023869;28;20097;-77
2021/05/03 02:51:02;;;;;;;2.97;1.30;;;2.50;99.90;;;;;;5025218;28;20025;-77
2021/05/03 02:53:27;;;;;;;3.05;1.48;;;2.60;99.90;;;;;;5025053;28;20049;-77
2021/05/03 02:55:53;;;;;;;3.28;1.60;;;2.70;99.90;;;;;;5025185;28;20026;-77
2021/05/03 02:58:18;;;;;;;3.65;1.67;;;2.60;99.90;;;;;;5022421;28;20026;-77
2021/05/03 03:00:44;;;;;;;3.35;1.83;;;2.70;99.90;;;;;;5025298;28;20049;-77
2021/05/03 03:03:10;;;;;;;4.45;1.77;;;2.70;99.90;;;;;;5007352;28;20026;-77
2021/05/03 03:05:57;;;;;;;4.03;2.10;;;2.70;99.90;;;;;;5024891;28;20030;-77
2021/05/03 03:08:22;;;;;;;4.05;2.10;;;2.70;99.90;;;;;;4928830;29;20048;-77
2021/05/03 03:10:48;;;;;;;3.45;1.70;;;2.80;99.90;;;;;;4929273;29;20048;-77
2021/05/03 03:13:14;;;;;;;4.15;1.50;;;2.70;99.90;;;;;;4945143;29;20031;-76
2021/05/03 03:18:34;;;;;;;3.38;1.60;;;2.80;99.90;;;;;;4945309;29;20092;-76
2021/05/03 03:21:00;;;;;;;3.42;1.58;;;2.80;99.90;;;;;;4929238;29;20036;-77
2021/05/03 03:23:26;;;;;;;2.88;1.20;;;2.80;99.90;;;;;;4945027;29;20070;-77
2021/05/03 03:25:51;;;;;;;2.92;1.73;;;2.80;99.90;;;;;;4944910;29;20055;-77
2021/05/03 03:28:17;;;;;;;5.28;1.48;;;2.70;99.90;;;;;;4945106;29;20048;-77
2021/05/03 03:30:42;;;;;;;5.13;1.50;;;2.80;99.90;;;;;;4929257;29;20027;-76
2021/05/03 03:33:08;;;;;;;4.22;1.17;;;2.70;99.90;;;;;;4939518;29;20041;-77
2021/05/03 03:35:34;;;;;;;5.45;1.80;;;2.70;99.90;;;;;;4931672;29;20027;-77
2021/05/03 03:37:59;;;;;;;3.60;1.92;;;2.80;99.90;;;;;;4944910;29;20035;-77
2021/05/03 03:40:25;;;;;;;3.28;1.63;;;2.70;99.90;;;;;;4944996;29;20035;-77
2021/05/03 03:42:51;;;;;;;5.13;1.83;;;2.60;99.90;;;;;;4945004;29;20063;-77
2021/05/03 03:45:17;;;;;;;5.40;1.88;;;2.60;99.90;;;;;;4953090;28;20130;-77
2021/05/03 03:48:11;;;;;;;3.45;1.77;;;2.50;99.90;;;;;;4987825;28;20034;-77
2021/05/03 03:50:36;;;;;;;4.05;1.85;;;2.60;99.90;;;;;;5005357;28;20144;-77
2021/05/03 03:53:02;;;;;;;4.63;2.00;;;2.60;99.90;;;;;;5007660;28;20026;-77
2021/05/03 03:55:28;;;;;;;3.80;1.92;;;2.70;99.90;;;;;;4990975;28;20461;-77
2021/05/03 03:57:54;;;;;;;4.18;1.52;;;2.70;99.90;;;;;;4991506;28;20022;-77
2021/05/03 04:00:20;;;;;;;7.35;2.13;;;2.70;99.90;;;;;;4991332;28;20061;-77
2021/05/03 04:02:46;;;;;;;3.90;1.83;;;2.70;99.90;;;;;;5007398;28;20030;-76
2021/05/03 04:11:15;;;;;;;3.63;1.80;;;2.70;99.90;;;;;;4948077;29;20040;-77
2021/05/03 04:14:02;;;;;;;4.45;1.40;;;2.80;99.90;;;;;;4931680;29;20028;-77
2021/05/03 04:22:58;;;;;;;5.03;2.22;;;3.00;99.90;;;;;;4947438;29;20043;-77
2021/05/03 04:25:41;;;;;;;3.83;1.88;;;3.00;99.90;;;;;;4947113;29;20028;-77
2021/05/03 04:28:07;;;;;;;4.00;1.98;;;3.10;99.90;;;;;;4944869;29;20047;-77
2021/05/03 04:30:35;;;;;;;4.40;2.10;;;3.10;99.90;;;;;;4947395;29;20039;-77
2021/05/03 04:33:01;;;;;;;5.00;2.22;;;3.20;99.90;;;;;;4931306;29;20121;-77
2021/05/03 04:35:26;;;;;;;5.47;2.15;;;3.10;99.90;;;;;;4947338;29;20553;-77
2021/05/03 04:37:52;;;;;;;4.90;2.90;;;3.20;99.90;;;;;;5035302;23;20073;-77
2021/05/03 04:40:18;;;;;;;4.32;2.25;;;3.20;99.90;;;;;;5049342;28;20029;-77
2021/05/03 04:42:43;;;;;;;4.35;2.03;;;3.20;99.90;;;;;;5049196;28;20021;-77
2021/05/03 04:45:11;;;;;;;4.43;2.40;;;3.30;99.90;;;;;;5046483;28;20032;-77
2021/05/03 04:47:39;;;;;;;5.47;2.83;;;3.30;99.90;;;;;;5049252;28;20116;-77
2021/05/03 04:50:07;;;;;;;3.67;2.13;;;3.30;99.90;;;;;;5049166;28;20044;-77
2021/05/03 04:52:34;;;;;;;6.30;3.00;;;3.30;99.90;;;;;;5050109;28;20029;-77
2021/05/03 04:55:00;;;;;;;4.20;2.65;;;3.40;99.90;;;;;;5032484;28;20028;-77
2021/05/03 04:57:26;;;;;;;9.07;2.60;;;3.50;99.90;;;;;;5066844;28;20032;-77
2021/05/03 04:59:52;;;;;;;7.00;3.20;;;3.60;99.90;;;;;;5048756;28;20028;-77
2021/05/03 05:02:18;;;;;;;6.72;3.28;;;3.70;99.90;;;;;;5066873;28;20041;-77
2021/05/03 05:04:43;;;;;;;7.15;3.88;;;3.70;99.90;;;;;;5047964;28;20029;-77
2021/05/03 05:07:09;;;;;;;8.23;5.60;;;3.80;99.90;;;;;;5031634;28;20083;-77
2021/05/03 05:09:35;;;;;;;8.13;3.95;;;3.80;99.90;;;;;;5044298;28;20041;-78
2021/05/03 05:12:00;;;;;;;7.40;4.60;;;3.90;99.90;;;;;;5039668;28;20029;-78
2021/05/03 05:14:26;;;;;;;5.43;3.45;;;4.00;99.90;;;;;;5066092;28;20427;-77
2021/05/03 05:16:52;;;;;;;8.18;4.85;;;4.00;99.90;;;;;;5065908;28;20125;-77
2021/05/03 05:19:18;;;;;;;6.25;3.45;;;4.10;99.90;;;;;;5066126;28;20088;-77
2021/05/03 05:21:44;;;;;;;9.23;6.60;;;4.10;99.90;;;;;;5047829;28;20040;-78
2021/05/03 05:24:10;;;;;;;6.70;4.88;;;4.20;99.90;;;;;;5031009;28;20033;-78
2021/05/03 05:26:36;;;;;;;9.32;6.63;;;4.20;99.90;;;;;;5029953;28;20080;-77
2021/05/03 05:29:01;;;;;;;7.30;5.43;;;4.30;99.90;;;;;;5031088;28;20033;-78
2021/05/03 05:31:27;;;;;;;9.52;6.55;;;4.30;99.90;;;;;;5031304;28;20032;-78
2021/05/03 05:33:52;;;;;;;7.13;6.07;;;4.30;99.90;;;;;;5047907;28;20032;-79
2021/05/03 05:36:18;;;;;;;9.00;5.85;;;4.30;99.90;;;;;;5047082;28;20060;-79
2021/05/03 05:38:44;;;;;;;6.57;5.10;;;4.40;99.90;;;;;;5046379;28;20073;-78
2021/05/03 05:41:13;;;;;;;10.75;6.65;;;4.40;99.90;;;;;;5030755;28;20092;-79
2021/05/03 05:43:39;;;;;;;8.30;5.43;;;4.40;99.90;;;;;;5031191;28;20100;-79
2021/05/03 05:46:05;;;;;;;9.55;6.55;;;4.50;99.90;;;;;;5031011;28;20037;-78
2021/05/03 05:48:30;;;;;;;9.65;6.47;;;4.50;99.90;;;;;;5031016;28;20075;-78
2021/05/03 05:50:56;;;;;;;8.45;5.85;;;4.50;99.90;;;;;;5047444;28;20025;-78
2021/05/03 05:53:22;;;;;;;9.40;6.15;;;4.60;99.90;;;;;;5031045;28;20040;-78
2021/05/03 05:55:47;;;;;;;8.43;5.75;;;4.60;99.90;;;;;;5065053;28;20091;-78
2021/05/03 05:58:13;;;;;;;7.22;5.13;;;4.70;99.90;;;;;;5065254;28;20104;-78
2021/05/03 06:00:38;;;;;;;9.20;5.05;;;4.70;99.90;;;;;;5044387;28;20025;-79
2021/05/03 06:03:04;;;;;;;10.23;5.13;;;4.80;99.90;;;;;;5047268;28;20056;-79
2021/05/03 06:05:30;;;;;;;7.75;5.03;;;4.80;99.90;;;;;;5028297;28;20033;-77
2021/05/03 06:07:55;;;;;;;6.97;3.97;;;5.00;99.90;;;;;;5047104;28;20389;-77
2021/05/03 06:10:21;;;;;;;6.40;3.67;;;5.10;99.90;;;;;;5029669;28;20060;-78
2021/05/03 06:12:47;;;;;;;8.07;3.53;;;5.20;99.90;;;;;;5046893;28;20083;-78
2021/05/03 06:15:13;;;;;;;4.80;3.65;;;5.20;99.90;;;;;;5044881;28;20025;-78
2021/05/03 06:17:38;;;;;;;5.82;3.17;;;5.20;99.90;;;;;;5045011;28;20117;-78
2021/05/03 06:20:05;;;;;;;6.50;3.08;;;5.30;99.90;;;;;;5064823;28;20028;-78
2021/05/03 06:22:32;;;;;;;7.30;3.40;;;5.30;99.90;;;;;;5029467;28;20029;-79
2021/05/03 06:25:00;;;;;;;4.20;2.97;;;5.40;99.90;;;;;;5046631;28;20097;-78
2021/05/03 06:27:26;;;;;;;7.03;3.90;;;5.50;99.90;;;;;;5030403;28;20461;-78
2021/05/03 06:29:52;;;;;;;6.07;3.33;;;5.50;99.90;;;;;;5046852;28;20155;-79
2021/05/03 06:32:17;;;;;;;5.47;3.20;;;5.50;99.90;;;;;;5030143;28;20461;-78
2021/05/03 06:34:43;;;;;;;6.30;4.03;;;5.60;99.90;;;;;;5046626;28;20049;-79
2021/05/03 06:37:09;;;;;;;5.50;3.10;;;5.50;99.90;;;;;;5046170;28;20036;-78
2021/05/03 06:39:35;;;;;;;5.07;3.20;;;5.70;99.90;;;;;;5029880;28;20028;-78
2021/05/03 06:42:00;;;;;;;5.57;3.35;;;5.70;99.90;;;;;;5046477;28;20091;-78
2021/05/03 06:44:26;;;;;;;5.93;3.60;;;5.80;99.90;;;;;;5029977;28;20048;-78
2021/05/03 06:46:52;;;;;;;4.55;2.53;;;5.80;99.90;;;;;;5029884;28;20055;-78
2021/05/03 06:49:17;;;;;;;6.97;3.30;;;6.00;99.90;;;;;;5064206;28;20377;-79
2021/05/03 06:51:44;;;;;;;7.38;3.33;;;6.00;99.90;;;;;;5045806;28;20036;-78
2021/05/03 06:54:10;;;;;;;5.63;3.55;;;6.00;99.90;;;;;;5030193;28;20097;-78
2021/05/03 06:56:36;;;;;;;5.00;3.50;;;6.10;99.90;;;;;;5046311;28;20041;-79
2021/05/03 06:59:02;;;;;;;7.90;4.03;;;6.20;99.90;;;;;;5029902;28;20039;-79
2021/05/03 07:01:27;;;;;;;5.78;3.33;;;6.40;99.90;;;;;;5064073;28;20028;-78
2021/05/03 07:03:53;;;;;;;5.57;3.08;;;6.50;99.90;;;;;;5046481;28;20029;-79
2021/05/03 07:06:19;;;;;;;5.53;3.20;;;6.60;99.90;;;;;;5046081;28;20039;-79
2021/05/03 07:08:45;;;;;;;5.20;3.00;;;6.60;99.90;;;;;;5045905;28;20029;-79
2021/05/03 07:11:17;;;;;;;7.85;3.08;;;6.80;99.90;;;;;;5046156;28;20028;-79
2021/05/03 07:13:43;;;;;;;4.00;2.58;;;6.90;99.90;;;;;;5046356;28;20031;-78
2021/05/03 07:16:08;;;;;;;4.05;2.97;;;7.00;99.90;;;;;;5046397;28;20025;-79
2021/05/03 07:18:34;;;;;;;7.88;2.83;;;7.00;99.90;;;;;;5046567;28;20443;-79
2021/05/03 07:21:00;;;;;;;4.80;3.35;;;7.10;99.90;;;;;;5046223;28;20045;-79
2021/05/03 07:23:26;;;;;;;3.58;2.45;;;7.30;99.90;;;;;;5064163;28;20028;-79
2021/05/03 07:25:52;;;;;;;4.63;2.83;;;7.50;99.90;;;;;;5046266;28;20029;-79
2021/05/03 07:28:17;;;;;;;6.47;3.25;;;7.70;99.90;;;;;;5047283;28;20030;-79
2021/05/03 07:30:43;;;;;;;6.25;3.38;;;7.70;99.90;;;;;;5050162;28;20115;-80
2021/05/03 07:33:09;;;;;;;5.15;2.83;;;7.80;99.90;;;;;;5050566;28;20115;-81
2021/05/03 07:35:34;;;;;;;4.82;3.00;;;8.00;99.90;;;;;;5050014;28;20024;-82
2021/05/03 07:38:00;;;;;;;4.28;2.80;;;8.20;99.90;;;;;;5049961;28;20511;-81
2021/05/03 07:40:26;;;;;;;3.53;2.13;;;8.20;99.90;;;;;;5050269;28;20481;-79
2021/05/03 07:42:51;;;;;;;5.78;2.40;;;8.40;99.90;;;;;;5068161;28;20044;-80
2021/05/03 07:45:17;;;;;;;4.20;2.33;;;8.50;99.90;;;;;;5049885;28;20028;-80
2021/05/03 07:47:44;;;;;;;6.38;1.83;;;8.60;99.90;;;;;;5067887;28;20021;-80
2021/05/03 07:50:11;;;;;;;4.15;2.15;;;8.60;99.90;;;;;;5049948;28;20056;-80
2021/05/03 07:52:37;;;;;;;2.78;1.40;;;8.80;99.90;;;;;;5033324;28;20087;-79
2021/05/03 07:55:04;;;;;;;4.50;2.35;;;8.80;99.90;;;;;;5049495;28;20041;-79
2021/05/03 07:57:30;;;;;;;4.70;2.17;;;8.80;99.90;;;;;;5033101;28;20021;-80
2021/05/03 07:59:56;;;;;;;8.50;2.67;;;9.00;99.90;;;;;;5049834;28;20034;-79
2021/05/03 08:02:21;;;;;;;3.92;2.50;;;9.10;99.90;;;;;;5049517;28;20025;-79
2021/05/03 08:04:47;;;;;;;3.60;1.75;;;9.50;99.90;;;;;;5033068;28;20025;-80
2021/05/03 08:07:13;;;;;;;6.60;3.05;;;9.90;99.90;;;;;;5029900;28;20515;-80
2021/05/03 08:09:39;;;;;;;5.25;4.05;;;10.30;99.90;;;;;;5047187;28;20041;-80
2021/05/03 08:12:06;;;;;;;9.80;5.53;;;10.60;99.90;;;;;;5067344;28;20053;-79
2021/05/03 08:14:32;;;;;;;6.25;4.10;;;10.50;99.90;;;;;;5049671;28;20025;-80
2021/05/03 08:17:04;;;;;;;7.18;4.10;;;10.80;99.90;;;;;;5049154;28;20107;-80
2021/05/03 08:19:31;;;;;;;7.43;4.57;;;10.90;99.90;;;;;;5049268;28;20037;-80
2021/05/03 08:21:58;;;;;;;6.72;4.13;;;11.00;99.90;;;;;;5032668;28;20041;-80
2021/05/03 08:24:24;;;;;;;7.60;4.25;;;11.30;99.90;;;;;;5049195;28;20029;-80
2021/05/03 08:26:49;;;;;;;5.72;4.72;;;11.30;99.90;;;;;;5048951;28;20029;-80
2021/05/03 08:29:15;;;;;;;4.80;3.38;;;11.70;99.90;;;;;;5048950;28;20085;-80
2021/05/03 08:31:41;;;;;;;9.02;5.75;;;11.80;99.90;;;;;;5046345;28;20113;-80
2021/05/03 08:34:06;;;;;;;8.30;5.47;;;11.30;99.90;;;;;;5048960;28;20477;-80
2021/05/03 08:36:32;;;;;;;8.02;5.78;;;11.50;99.90;;;;;;5031767;28;20056;-80
2021/05/03 08:38:58;;;;;;;10.25;6.15;;;11.20;99.90;;;;;;5065550;28;20025;-80
2021/05/03 08:41:24;;;;;;;8.45;5.15;;;11.50;99.90;;;;;;5045952;28;20037;-80
2021/05/03 08:43:52;;;;;;;6.57;4.90;;;12.10;99.90;;;;;;5048934;28;20029;-80
2021/05/03 08:46:27;;;;;;;9.45;5.50;;;12.30;99.90;;;;;;5048643;28;20098;-80
2021/05/03 08:49:00;;;;;;;7.78;4.78;;;11.90;99.90;;;;;;5032060;28;20045;-80
2021/05/03 08:54:21;;;;;;;10.57;5.53;;;11.90;99.90;;;;;;5066523;28;20507;-79
2021/05/03 08:56:46;;;;;;;7.72;5.40;;;12.00;99.90;;;;;;5048777;28;20036;-79
2021/05/03 08:59:13;;;;;;;10.00;7.13;;;12.20;99.90;;;;;;5048575;28;20077;-79
2021/05/03 09:01:47;;;;;;;8.27;5.78;;;11.90;99.90;;;;;;5031742;28;20464;-79
2021/05/03 09:04:13;;;;;;;7.72;5.72;;;12.10;99.90;;;;;;5031811;28;20096;-79
2021/05/03 09:06:55;;;;;;;7.35;5.20;;;12.30;99.90;;;;;;5031454;28;20040;-80
2021/05/03 09:09:29;;;;;;;11.63;7.53;;;12.50;99.90;;;;;;5048267;28;20041;-80
2021/05/03 09:12:05;;;;;;;8.57;6.60;;;12.20;99.90;;;;;;5048144;28;20031;-80
2021/05/03 09:14:32;;;;;;;10.90;7.00;;;12.10;99.90;;;;;;5050907;28;20037;-79
2021/05/03 09:16:59;;;;;;;9.00;6.35;;;12.30;99.90;;;;;;5048076;28;20025;-80
2021/05/03 09:19:27;;;;;;;7.05;4.90;;;12.80;99.90;;;;;;5048048;28;20047;-79
2021/05/03 09:21:54;;;;;;;8.60;7.35;;;13.00;99.90;;;;;;5031328;28;20033;-79
2021/05/03 09:26:52;;;;;;;8.02;6.75;;;13.00;99.90;;;;;;5047755;28;20029;-80
2021/05/03 09:29:44;;;;;;;9.48;5.85;;;13.30;99.90;;;;;;5065778;28;20103;-80
2021/05/03 09:32:13;;;;;;;9.88;6.25;;;13.40;99.90;;;;;;5031161;28;20025;-80
2021/05/03 09:34:46;;;;;;;7.30;5.95;;;13.50;99.90;;;;;;5031173;28;20033;-81
2021/05/03 09:37:19;;;;;;;8.75;6.85;;;13.60;99.90;;;;;;5030798;28;20171;-80
2021/05/03 09:40:07;;;;;;;7.18;5.45;;;13.50;99.90;;;;;;5048581;28;20029;-81
2021/05/03 09:42:50;;;;;;;8.98;6.00;;;13.70;99.90;;;;;;5034771;28;20089;-80
2021/05/03 09:45:30;;;;;;;6.93;5.13;;;14.00;99.90;;;;;;5048100;28;20029;-80
2021/05/03 09:47:57;;;;;;;7.28;5.22;;;13.90;99.90;;;;;;5031094;28;20553;-80
2021/05/03 09:50:31;;;;;;;7.55;5.82;;;14.10;99.90;;;;;;5065008;28;20036;-79
2021/05/03 09:53:06;;;;;;;7.80;5.88;;;14.10;99.90;;;;;;5031268;28;20028;-81
2021/05/03 09:55:43;;;;;;;6.90;5.88;;;14.10;99.90;;;;;;5031039;28;20120;-80
2021/05/03 09:58:25;;;;;;;6.63;4.85;;;14.30;99.90;;;;;;5047641;28;20029;-80
2021/05/03 10:00:52;;;;;;;5.25;4.45;;;14.30;99.90;;;;;;5048342;28;20028;-80
2021/05/03 10:03:43;;;;;;;7.80;6.55;;;14.50;99.90;;;;;;5047493;28;20020;-81
2021/05/03 10:06:11;;;;;;;8.45;7.07;;;14.40;99.90;;;;;;5065098;28;20040;-81
2021/05/03 10:08:38;;;;;;;8.77;6.18;;;14.30;99.90;;;;;;5044515;28;20092;-80
2021/05/03 10:11:08;;;;;;;6.70;4.95;;;14.50;99.90;;;;;;5031695;28;20033;-80
2021/05/03 10:13:35;;;;;;;5.88;5.25;;;14.60;99.90;;;;;;5030759;28;20039;-81
2021/05/03 10:16:01;;;;;;;9.18;6.20;;;14.50;99.90;;;;;;5047016;28;20043;-81
2021/05/03 10:18:28;;;;;;;8.30;5.65;;;13.90;99.90;;;;;;5030668;28;20040;-81
2021/05/03 10:20:56;;;;;;;6.63;5.60;;;13.90;99.90;;;;;;5064874;28;20039;-81
2021/05/03 10:23:23;;;;;;;10.82;6.22;;;14.30;99.90;;;;;;5030575;28;20059;-81
2021/05/03 10:25:55;;;;;;;5.18;3.88;;;14.50;99.90;;;;;;5046904;28;20473;-80
2021/05/03 10:28:20;;;;;;;7.07;5.97;;;15.20;99.90;;;;;;5046899;28;20051;-80
2021/05/03 10:30:48;;;;;;;6.93;4.30;;;14.60;99.90;;;;;;5046806;28;20025;-80
2021/05/03 10:33:15;;;;;;;6.55;4.50;;;15.00;99.90;;;;;;5030360;28;20048;-80
2021/05/03 10:35:46;;;;;;;6.00;4.45;;;15.40;99.90;;;;;;5030086;28;20120;-80
2021/05/03 10:38:30;;;;;;;10.02;5.68;;;15.70;99.90;;;;;;5046532;28;20055;-80
2021/05/03 10:40:58;;;;;;;5.82;3.97;;;15.10;99.90;;;;;;5046673;28;20049;-81
2021/05/03 10:43:28;;;;;;;4.63;3.97;;;14.70;99.90;;;;;;5030093;28;20021;-80
2021/05/03 10:46:06;;;;;;;;;;;14.10;99.90;;;;;;5064999;28;20029;-81
2021/05/03 10:48:44;;;;;;;6.05;4.53;;;14.00;99.90;;;;;;5061733;28;19916;-80
2021/05/03 10:51:38;;;;;;;5.18;4.07;;;14.30;99.90;;;;;;5046528;28;20155;-80
2021/05/03 10:57:08;;;;;;;5.53;4.93;;;14.20;99.90;;;;;;5046615;28;20044;-80
2021/05/03 10:59:55;;;;;;;7.05;6.35;;;14.30;99.90;;;;;;5046368;28;20059;-80
2021/05/03 11:02:45;;;;;;;8.48;5.75;;;13.70;99.90;;;;;;5029342;28;20459;-81
2021/05/03 11:05:15;;;;;;;;;;;13.80;99.90;;;;;;5034407;28;20048;-80
2021/05/03 11:08:02;;;;;;;5.00;4.18;;;13.70;99.90;;;;;;5029651;28;19909;-80
2021/05/03 11:11:05;;;;;;;7.88;4.00;;;14.00;99.90;;;;;;5046439;28;20037;-81
2021/05/03 11:13:36;;;;;;;7.05;5.15;;;14.30;99.90;;;;;;4984023;28;20035;-80
2021/05/03 11:16:41;;;;;;;5.97;4.70;;;14.50;99.90;;;;;;4966495;28;20213;-79
2021/05/03 11:20:01;;;;;;;7.63;5.65;;;14.30;99.90;;;;;;4958542;28;20031;-80
2021/05/03 11:22:55;;;;;;;6.88;5.57;;;14.30;98.10;;;;;;4982893;28;20503;-80
2021/05/03 11:25:27;;;;;;;8.80;6.18;;;13.80;99.90;;;;;;4950825;28;20134;-80
2021/05/03 11:28:07;;;;;;;9.05;7.10;;;13.70;99.90;;;;;;4963888;28;20043;-80
2021/05/03 11:30:35;;;;;;;;;;;13.90;99.90;;;;;;4950863;28;20076;-80
2021/05/03 11:35:41;;;;;;;8.60;6.32;;;13.80;99.30;;;;;;4968608;28;20093;-79
2021/05/03 11:38:26;;;;;;;6.75;5.45;;;13.70;98.60;;;;;;4966494;28;20083;-80
2021/05/03 11:41:46;;;;;;;7.85;5.43;;;13.90;99.00;;;;;;4950423;28;20071;-80
2021/05/03 11:44:11;;;;;;;4.25;3.33;;;14.00;99.30;;;;;;4968729;28;20042;-80
2021/05/03 11:46:37;;;;;;;5.63;4.60;;;14.30;99.90;;;;;;4972019;28;20534;-80
2021/05/03 11:49:09;;;;;;;5.45;4.78;;;14.00;99.90;;;;;;5024566;28;20045;-81
2021/05/03 11:51:42;;;;;;;5.22;3.65;;;13.90;99.90;;;;;;5025694;28;20033;-79
2021/05/03 11:54:31;;;;;;;5.57;3.03;;;14.10;99.90;;;;;;5026207;28;20025;-80
2021/05/03 11:57:14;;;;;;;4.38;3.28;;;14.30;99.90;;;;;;5009305;28;20385;-80
2021/05/03 11:59:39;;;;;;;3.25;2.75;;;14.20;99.90;;;;;;5026110;28;20053;-79
2021/05/03 12:02:13;;;;;;;5.65;3.88;;;14.00;99.10;;;;;;5023603;28;20026;-78
2021/05/03 12:04:48;;;;;;;8.80;5.32;;;13.60;98.70;;;;;;4972301;28;20057;-79
2021/05/03 12:07:32;;;;;;;7.05;5.05;;;13.50;99.90;;;;;;5022821;28;20037;-79
2021/05/03 12:10:05;;;;;;;6.80;5.93;;;13.80;99.90;;;;;;5039711;28;20058;-79
2021/05/03 12:12:38;;;;;;;7.13;5.65;;;14.00;99.90;;;;;;5005491;28;20030;-79
2021/05/03 12:15:20;;;;;;;6.18;4.78;;;14.10;96.80;;;;;;5044680;28;20064;-80
2021/05/03 12:17:47;;;;;;;5.55;3.75;;;14.00;98.00;;;;;;5025110;28;20030;-79
2021/05/03 12:20:18;;;;;;;4.72;3.92;;;14.30;98.50;;;;;;5041437;28;20061;-79
2021/05/03 12:23:02;;;;;;;4.90;4.38;;;14.20;97.60;;;;;;4995729;28;20029;-79
2021/05/03 12:25:45;;;;;;;7.05;5.90;;;13.80;96.80;;;;;;5025825;28;20123;-80
2021/05/03 12:28:12;;;;;;;5.97;4.60;;;13.50;97.20;;;;;;5005029;28;20104;-79
2021/05/03 12:30:39;;;;;;;6.63;4.65;;;14.10;99.50;;;;;;5008700;28;20030;-79
2021/05/03 12:33:11;;;;;;;5.43;4.93;;;14.10;98.10;;;;;;5026148;28;20087;-79
2021/05/03 12:35:37;;;;;;;4.32;3.10;;;14.30;97.40;;;;;;5020781;28;20072;-79
2021/05/03 12:38:35;;;;;;;7.80;3.47;;;14.70;96.90;;;;;;5029836;28;20048;-80
2021/05/03 12:41:04;;;;;;;5.18;3.47;;;14.50;94.70;;;;;;4997867;28;20041;-79
2021/05/03 12:43:33;;;;;;;8.05;4.75;;;14.30;97.50;;;;;;5028394;28;20048;-79
2021/05/03 12:48:33;;;;;;;5.00;3.40;;;14.00;97.20;;;;;;5044813;28;20134;-80
2021/05/03 12:54:09;;;;;;;3.10;2.78;;;14.60;95.00;;;;;;5066335;28;20024;-79
2021/05/03 12:57:00;;;;;;;5.68;3.20;;;14.10;95.50;;;;;;5025785;28;20056;-79
2021/05/03 13:00:06;;;;;;;6.60;4.60;;;14.40;96.90;;;;;;5047085;28;20025;-80
2021/05/03 13:02:34;;;;;;;4.97;3.17;;;14.00;94.20;;;;;;5065522;28;20048;-79
2021/05/03 13:05:17;;;;;;;6.10;2.88;;;14.00;95.80;;;;;;5038309;28;20148;-79
2021/05/03 13:30:00;;;;;;;4.07;2.93;;;13.80;99.90;;;;;;5047815;28;20059;-79
2021/05/03 13:32:28;;;;;;;7.07;3.65;;;14.10;99.90;;;;;;5031359;28;20055;-79
2021/05/03 13:34:54;;;;;;;4.68;2.85;;;14.60;99.90;;;;;;5031501;28;20100;-79
2021/05/03 13:37:22;;;;;;;3.13;2.30;;;14.80;97.20;;;;;;5047132;28;20045;-79
2021/05/03 13:39:48;;;;;;;2.78;1.55;;;14.90;97.30;;;;;;5047865;28;20029;-79
2021/05/03 13:42:15;;;;;;;7.40;2.72;;;15.00;95.80;;;;;;5047550;28;20021;-80
2021/05/03 13:44:42;;;;;;;3.47;1.88;;;14.90;94.30;;;;;;5065768;28;20085;-79
2021/05/03 13:47:09;;;;;;;3.45;1.77;;;14.80;93.20;;;;;;5047556;28;20017;-78
2021/05/03 13:49:35;;;;;;;4.05;2.10;;;14.90;94.00;;;;;;5028371;28;20040;-80
2021/05/03 13:52:03;;;;;;;4.65;2.10;;;14.70;94.70;;;;;;5031047;28;20021;-80
2021/05/03 13:54:28;;;;;;;6.50;2.03;;;14.70;93.70;;;;;;5065467;28;20104;-80
2021/05/03 13:57:03;;;;;;;3.25;2.40;;;14.90;95.20;;;;;;5064598;28;20083;-80